sensor_id;sensor_type;location;lat;lon;timestamp;temperature;humidity
56538;DHT22;42435;53.292;6.000;2024-03-23T00:54:56;6.40;82.60
56538;DHT22;42435;53.292;6.000;2024-03-23T00:57:37;6.30;82.70
56538;DHT22;42435;53.292;6.000;2024-03-23T01:00:12;6.30;82.60
56538;DHT22;42435;53.292;6.000;2024-03-23T01:02:41;6.30;82.60
56538;DHT22;42435;53.292;6.000;2024-03-23T01:05:10;6.30;82.70
56538;DHT22;42435;53.292;6.000;2024-03-23T01:07:36;6.20;82.60
56538;DHT22;42435;53.292;6.000;2024-03-23T01:10:07;6.20;82.60
56538;DHT22;42435;53.292;6.000;2024-03-23T01:12:36;6.20;82.60
56538;DHT22;42435;53.292;6.000;2024-03-23T01:15:02;6.20;82.60
56538;DHT22;42435;53.292;6.000;2024-03-23T01:17:32;6.20;82.60
56538;DHT22;42435;53.292;6.000;2024-03-23T01:20:04;6.20;82.60
56538;DHT22;42435;53.292;6.000;2024-03-23T01:22:34;6.20;82.60
56538;DHT22;42435;53.292;6.000;2024-03-23T01:25:09;6.20;82.60
56538;DHT22;42435;53.292;6.000;2024-03-23T01:27:46;6.10;82.60
56538;DHT22;42435;53.292;6.000;2024-03-23T01:30:12;6.10;82.60
56538;DHT22;42435;53.292;6.000;2024-03-23T01:32:44;6.10;82.60
56538;DHT22;42435;53.292;6.000;2024-03-23T01:35:25;6.10;82.70
56538;DHT22;42435;53.292;6.000;2024-03-23T01:37:52;6.10;82.70
56538;DHT22;42435;53.292;6.000;2024-03-23T01:40:29;6.00;82.60
56538;DHT22;42435;53.292;6.000;2024-03-23T01:43:03;6.00;82.60
56538;DHT22;42435;53.292;6.000;2024-03-23T01:45:30;6.00;82.60
56538;DHT22;42435;53.292;6.000;2024-03-23T01:47:58;6.00;82.60
56538;DHT22;42435;53.292;6.000;2024-03-23T01:50:24;6.00;82.60
56538;DHT22;42435;53.292;6.000;2024-03-23T01:52:54;5.90;82.60
56538;DHT22;42435;53.292;6.000;2024-03-23T01:55:24;5.90;82.60
56538;DHT22;42435;53.292;6.000;2024-03-23T01:57:58;5.90;82.60
56538;DHT22;42435;53.292;6.000;2024-03-23T02:00:39;5.90;82.60
56538;DHT22;42435;53.292;6.000;2024-03-23T02:03:27;5.90;82.60
56538;DHT22;42435;53.292;6.000;2024-03-23T02:06:14;5.90;82.60
56538;DHT22;42435;53.292;6.000;2024-03-23T02:08:44;5.90;82.50
56538;DHT22;42435;53.292;6.000;2024-03-23T02:11:15;5.80;82.60
56538;DHT22;42435;53.292;6.000;2024-03-23T02:13:45;5.80;82.50
56538;DHT22;42435;53.292;6.000;2024-03-23T02:16:21;5.80;82.50
56538;DHT22;42435;53.292;6.000;2024-03-23T02:19:02;5.80;82.50
56538;DHT22;42435;53.292;6.000;2024-03-23T02:21:30;5.70;82.50
56538;DHT22;42435;53.292;6.000;2024-03-23T02:24:45;5.70;82.50
56538;DHT22;42435;53.292;6.000;2024-03-23T02:27:13;5.60;82.60
56538;DHT22;42435;53.292;6.000;2024-03-23T02:29:41;5.60;82.50
56538;DHT22;42435;53.292;6.000;2024-03-23T02:32:11;5.60;82.60
56538;DHT22;42435;53.292;6.000;2024-03-23T02:34:37;5.60;82.60
56538;DHT22;42435;53.292;6.000;2024-03-23T02:37:37;5.60;82.60
56538;DHT22;42435;53.292;6.000;2024-03-23T02:40:29;5.50;82.60
56538;DHT22;42435;53.292;6.000;2024-03-23T02:43:18;5.50;82.70
56538;DHT22;42435;53.292;6.000;2024-03-23T02:45:44;5.50;82.70
56538;DHT22;42435;53.292;6.000;2024-03-23T02:48:20;5.50;82.70
56538;DHT22;42435;53.292;6.000;2024-03-23T02:50:53;5.50;82.80
56538;DHT22;42435;53.292;6.000;2024-03-23T02:53:28;5.50;82.70
56538;DHT22;42435;53.292;6.000;2024-03-23T02:56:00;5.50;82.80
56538;DHT22;42435;53.292;6.000;2024-03-23T02:58:44;5.40;82.80
56538;DHT22;42435;53.292;6.000;2024-03-23T03:01:11;5.40;82.80
56538;DHT22;42435;53.292;6.000;2024-03-23T03:03:42;5.40;82.80
56538;DHT22;42435;53.292;6.000;2024-03-23T03:06:22;5.40;82.70
56538;DHT22;42435;53.292;6.000;2024-03-23T03:08:52;5.40;82.80
56538;DHT22;42435;53.292;6.000;2024-03-23T03:11:23;5.40;82.70
56538;DHT22;42435;53.292;6.000;2024-03-23T03:14:00;5.40;82.70
56538;DHT22;42435;53.292;6.000;2024-03-23T03:16:30;5.40;82.70
56538;DHT22;42435;53.292;6.000;2024-03-23T03:19:10;5.40;82.70
56538;DHT22;42435;53.292;6.000;2024-03-23T03:21:42;5.30;82.70
56538;DHT22;42435;53.292;6.000;2024-03-23T03:24:18;5.40;82.70
56538;DHT22;42435;53.292;6.000;2024-03-23T03:26:52;5.40;82.70
56538;DHT22;42435;53.292;6.000;2024-03-23T03:29:38;5.30;82.60
56538;DHT22;42435;53.292;6.000;2024-03-23T03:32:10;5.30;82.60
56538;DHT22;42435;53.292;6.000;2024-03-23T03:34:40;5.30;82.70
56538;DHT22;42435;53.292;6.000;2024-03-23T03:37:21;5.40;82.70
56538;DHT22;42435;53.292;6.000;2024-03-23T03:39:52;5.40;82.80
56538;DHT22;42435;53.292;6.000;2024-03-23T03:42:18;5.40;82.80
56538;DHT22;42435;53.292;6.000;2024-03-23T03:44:46;5.40;82.80
56538;DHT22;42435;53.292;6.000;2024-03-23T03:47:18;5.40;82.80
56538;DHT22;42435;53.292;6.000;2024-03-23T03:49:55;5.40;82.80
56538;DHT22;42435;53.292;6.000;2024-03-23T03:52:24;5.40;82.80
56538;DHT22;42435;53.292;6.000;2024-03-23T03:55:02;5.40;82.80
56538;DHT22;42435;53.292;6.000;2024-03-23T03:57:29;5.40;82.90
56538;DHT22;42435;53.292;6.000;2024-03-23T04:00:02;5.50;82.80
56538;DHT22;42435;53.292;6.000;2024-03-23T04:02:31;5.50;82.80
56538;DHT22;42435;53.292;6.000;2024-03-23T04:05:00;5.50;82.80
56538;DHT22;42435;53.292;6.000;2024-03-23T04:07:38;5.50;82.80
56538;DHT22;42435;53.292;6.000;2024-03-23T04:10:06;5.50;82.80
56538;DHT22;42435;53.292;6.000;2024-03-23T04:12:38;5.50;82.80
56538;DHT22;42435;53.292;6.000;2024-03-23T04:15:08;5.60;82.80
56538;DHT22;42435;53.292;6.000;2024-03-23T04:17:34;5.50;82.80
56538;DHT22;42435;53.292;6.000;2024-03-23T04:20:04;5.60;82.90
56538;DHT22;42435;53.292;6.000;2024-03-23T04:22:50;5.60;82.90
56538;DHT22;42435;53.292;6.000;2024-03-23T04:25:29;5.60;82.80
56538;DHT22;42435;53.292;6.000;2024-03-23T04:28:00;5.70;82.80
56538;DHT22;42435;53.292;6.000;2024-03-23T04:30:34;5.70;82.80
56538;DHT22;42435;53.292;6.000;2024-03-23T04:33:05;5.70;82.80
56538;DHT22;42435;53.292;6.000;2024-03-23T04:35:55;5.70;82.80
56538;DHT22;42435;53.292;6.000;2024-03-23T04:38:22;5.70;82.90
56538;DHT22;42435;53.292;6.000;2024-03-23T04:40:58;5.80;82.90
56538;DHT22;42435;53.292;6.000;2024-03-23T04:43:32;5.80;82.90
56538;DHT22;42435;53.292;6.000;2024-03-23T04:45:58;5.80;82.80
56538;DHT22;42435;53.292;6.000;2024-03-23T04:48:36;5.90;82.70
56538;DHT22;42435;53.292;6.000;2024-03-23T04:51:05;5.90;82.70
56538;DHT22;42435;53.292;6.000;2024-03-23T04:53:43;5.90;82.70
56538;DHT22;42435;53.292;6.000;2024-03-23T04:56:18;5.90;82.60
56538;DHT22;42435;53.292;6.000;2024-03-23T04:58:54;5.90;82.50
56538;DHT22;42435;53.292;6.000;2024-03-23T05:01:33;5.80;82.40
56538;DHT22;42435;53.292;6.000;2024-03-23T05:04:02;5.80;82.40
56538;DHT22;42435;53.292;6.000;2024-03-23T05:06:31;5.80;82.40
56538;DHT22;42435;53.292;6.000;2024-03-23T05:09:03;5.70;82.40
56538;DHT22;42435;53.292;6.000;2024-03-23T05:11:39;5.70;82.40
56538;DHT22;42435;53.292;6.000;2024-03-23T05:14:14;5.70;82.40
56538;DHT22;42435;53.292;6.000;2024-03-23T05:16:40;5.70;82.40
56538;DHT22;42435;53.292;6.000;2024-03-23T05:19:07;5.70;82.40
56538;DHT22;42435;53.292;6.000;2024-03-23T05:21:34;5.70;82.40
56538;DHT22;42435;53.292;6.000;2024-03-23T05:24:10;5.70;82.40
56538;DHT22;42435;53.292;6.000;2024-03-23T05:26:46;5.70;82.50
56538;DHT22;42435;53.292;6.000;2024-03-23T05:29:19;5.70;82.60
56538;DHT22;42435;53.292;6.000;2024-03-23T05:31:51;5.80;82.70
56538;DHT22;42435;53.292;6.000;2024-03-23T05:34:21;5.90;82.60
56538;DHT22;42435;53.292;6.000;2024-03-23T05:37:05;5.90;82.30
56538;DHT22;42435;53.292;6.000;2024-03-23T05:39:46;6.00;81.90
56538;DHT22;42435;53.292;6.000;2024-03-23T05:42:33;6.00;81.50
56538;DHT22;42435;53.292;6.000;2024-03-23T05:45:07;6.00;81.30
56538;DHT22;42435;53.292;6.000;2024-03-23T05:47:35;6.00;81.20
56538;DHT22;42435;53.292;6.000;2024-03-23T05:50:14;6.00;81.10
56538;DHT22;42435;53.292;6.000;2024-03-23T05:53:05;6.00;81.10
56538;DHT22;42435;53.292;6.000;2024-03-23T05:55:37;6.10;81.20
56538;DHT22;42435;53.292;6.000;2024-03-23T05:58:06;6.10;81.20
56538;DHT22;42435;53.292;6.000;2024-03-23T06:00:38;6.20;81.20
56538;DHT22;42435;53.292;6.000;2024-03-23T06:03:19;6.20;81.20
56538;DHT22;42435;53.292;6.000;2024-03-23T06:05:58;6.20;81.20
56538;DHT22;42435;53.292;6.000;2024-03-23T06:08:38;6.30;81.20
56538;DHT22;42435;53.292;6.000;2024-03-23T06:11:13;6.30;81.20
56538;DHT22;42435;53.292;6.000;2024-03-23T06:13:50;6.40;81.20
56538;DHT22;42435;53.292;6.000;2024-03-23T06:16:34;6.40;81.20
56538;DHT22;42435;53.292;6.000;2024-03-23T06:19:06;6.50;81.20
56538;DHT22;42435;53.292;6.000;2024-03-23T06:22:11;6.60;81.20
56538;DHT22;42435;53.292;6.000;2024-03-23T06:24:44;6.70;81.10
56538;DHT22;42435;53.292;6.000;2024-03-23T06:27:15;6.70;81.10
56538;DHT22;42435;53.292;6.000;2024-03-23T06:29:54;6.80;81.10
56538;DHT22;42435;53.292;6.000;2024-03-23T06:32:29;6.90;81.10
56538;DHT22;42435;53.292;6.000;2024-03-23T06:35:26;6.90;81.10
56538;DHT22;42435;53.292;6.000;2024-03-23T06:37:55;7.00;81.10
56538;DHT22;42435;53.292;6.000;2024-03-23T06:40:26;7.10;80.90
56538;DHT22;42435;53.292;6.000;2024-03-23T06:43:00;7.10;80.70
56538;DHT22;42435;53.292;6.000;2024-03-23T06:45:34;7.10;80.50
56538;DHT22;42435;53.292;6.000;2024-03-23T06:48:14;7.00;80.40
56538;DHT22;42435;53.292;6.000;2024-03-23T06:51:12;7.00;80.20
56538;DHT22;42435;53.292;6.000;2024-03-23T06:53:51;7.00;80.20
56538;DHT22;42435;53.292;6.000;2024-03-23T06:56:19;7.00;80.00
56538;DHT22;42435;53.292;6.000;2024-03-23T06:58:54;7.00;80.00
56538;DHT22;42435;53.292;6.000;2024-03-23T07:01:29;7.00;79.90
56538;DHT22;42435;53.292;6.000;2024-03-23T07:04:12;7.00;79.60
56538;DHT22;42435;53.292;6.000;2024-03-23T07:06:45;7.00;79.40
56538;DHT22;42435;53.292;6.000;2024-03-23T07:09:26;7.00;79.20
56538;DHT22;42435;53.292;6.000;2024-03-23T07:12:01;7.00;79.20
56538;DHT22;42435;53.292;6.000;2024-03-23T07:14:31;7.00;79.30
56538;DHT22;42435;53.292;6.000;2024-03-23T07:17:13;7.00;79.50
56538;DHT22;42435;53.292;6.000;2024-03-23T07:19:51;7.10;79.70
56538;DHT22;42435;53.292;6.000;2024-03-23T07:22:24;7.20;80.00
56538;DHT22;42435;53.292;6.000;2024-03-23T07:24:59;7.40;80.10
56538;DHT22;42435;53.292;6.000;2024-03-23T07:27:47;7.60;79.90
56538;DHT22;42435;53.292;6.000;2024-03-23T07:30:24;7.80;79.00
56538;DHT22;42435;53.292;6.000;2024-03-23T07:32:58;7.80;78.10
56538;DHT22;42435;53.292;6.000;2024-03-23T07:35:28;7.70;77.50
56538;DHT22;42435;53.292;6.000;2024-03-23T07:38:05;7.60;77.50
56538;DHT22;42435;53.292;6.000;2024-03-23T07:40:40;7.50;77.40
56538;DHT22;42435;53.292;6.000;2024-03-23T07:43:10;7.40;77.30
56538;DHT22;42435;53.292;6.000;2024-03-23T07:45:51;7.30;77.30
56538;DHT22;42435;53.292;6.000;2024-03-23T07:48:36;7.30;77.20
56538;DHT22;42435;53.292;6.000;2024-03-23T07:51:20;7.20;77.30
56538;DHT22;42435;53.292;6.000;2024-03-23T07:53:47;7.20;77.50
56538;DHT22;42435;53.292;6.000;2024-03-23T07:56:20;7.20;77.90
56538;DHT22;42435;53.292;6.000;2024-03-23T07:58:54;7.30;78.40
56538;DHT22;42435;53.292;6.000;2024-03-23T08:01:22;7.40;78.70
56538;DHT22;42435;53.292;6.000;2024-03-23T08:03:51;7.70;78.60
56538;DHT22;42435;53.292;6.000;2024-03-23T08:06:27;7.80;78.30
56538;DHT22;42435;53.292;6.000;2024-03-23T08:09:07;7.90;77.80
56538;DHT22;42435;53.292;6.000;2024-03-23T08:11:46;8.00;77.70
56538;DHT22;42435;53.292;6.000;2024-03-23T08:14:12;8.10;77.90
56538;DHT22;42435;53.292;6.000;2024-03-23T08:16:43;8.30;77.90
56538;DHT22;42435;53.292;6.000;2024-03-23T08:19:20;8.50;77.70
56538;DHT22;42435;53.292;6.000;2024-03-23T08:21:56;8.70;77.80
56538;DHT22;42435;53.292;6.000;2024-03-23T08:24:28;8.80;77.40
56538;DHT22;42435;53.292;6.000;2024-03-23T08:27:11;8.90;76.50
56538;DHT22;42435;53.292;6.000;2024-03-23T08:29:46;9.00;75.90
56538;DHT22;42435;53.292;6.000;2024-03-23T08:32:43;9.20;75.70
56538;DHT22;42435;53.292;6.000;2024-03-23T08:35:10;9.40;74.70
56538;DHT22;42435;53.292;6.000;2024-03-23T08:37:40;9.60;74.00
56538;DHT22;42435;53.292;6.000;2024-03-23T08:40:11;9.90;73.70
56538;DHT22;42435;53.292;6.000;2024-03-23T08:42:46;10.00;73.10
56538;DHT22;42435;53.292;6.000;2024-03-23T08:45:26;10.10;72.50
56538;DHT22;42435;53.292;6.000;2024-03-23T08:48:14;10.10;71.60
56538;DHT22;42435;53.292;6.000;2024-03-23T08:50:40;9.90;70.80
56538;DHT22;42435;53.292;6.000;2024-03-23T08:53:10;9.70;70.60
56538;DHT22;42435;53.292;6.000;2024-03-23T08:55:41;9.50;70.20
56538;DHT22;42435;53.292;6.000;2024-03-23T08:58:07;9.40;70.30
56538;DHT22;42435;53.292;6.000;2024-03-23T09:00:38;9.30;70.50
56538;DHT22;42435;53.292;6.000;2024-03-23T09:03:12;9.30;70.70
56538;DHT22;42435;53.292;6.000;2024-03-23T09:05:39;9.30;71.20
56538;DHT22;42435;53.292;6.000;2024-03-23T09:08:25;9.40;71.30
56538;DHT22;42435;53.292;6.000;2024-03-23T09:10:55;9.60;71.20
56538;DHT22;42435;53.292;6.000;2024-03-23T09:13:30;9.70;71.10
56538;DHT22;42435;53.292;6.000;2024-03-23T09:15:57;9.90;71.00
56538;DHT22;42435;53.292;6.000;2024-03-23T09:18:42;10.00;70.20
56538;DHT22;42435;53.292;6.000;2024-03-23T09:21:18;10.20;70.20
56538;DHT22;42435;53.292;6.000;2024-03-23T09:23:49;10.30;69.90
56538;DHT22;42435;53.292;6.000;2024-03-23T09:26:25;10.40;69.30
56538;DHT22;42435;53.292;6.000;2024-03-23T09:28:54;10.60;68.70
56538;DHT22;42435;53.292;6.000;2024-03-23T09:31:25;10.80;68.00
56538;DHT22;42435;53.292;6.000;2024-03-23T09:33:54;10.90;67.20
56538;DHT22;42435;53.292;6.000;2024-03-23T09:36:26;10.90;66.10
56538;DHT22;42435;53.292;6.000;2024-03-23T09:38:56;10.70;65.40
56538;DHT22;42435;53.292;6.000;2024-03-23T09:41:33;10.50;65.00
56538;DHT22;42435;53.292;6.000;2024-03-23T09:44:08;10.40;65.60
56538;DHT22;42435;53.292;6.000;2024-03-23T09:46:40;10.50;66.30
56538;DHT22;42435;53.292;6.000;2024-03-23T09:49:24;10.60;66.90
56538;DHT22;42435;53.292;6.000;2024-03-23T09:52:05;10.70;66.70
56538;DHT22;42435;53.292;6.000;2024-03-23T09:54:53;10.90;66.30
56538;DHT22;42435;53.292;6.000;2024-03-23T09:57:22;10.90;65.90
56538;DHT22;42435;53.292;6.000;2024-03-23T10:00:01;11.10;65.40
56538;DHT22;42435;53.292;6.000;2024-03-23T10:02:55;11.20;65.30
56538;DHT22;42435;53.292;6.000;2024-03-23T10:09:45;11.50;63.80
56538;DHT22;42435;53.292;6.000;2024-03-23T10:12:33;11.50;63.60
56538;DHT22;42435;53.292;6.000;2024-03-23T10:15:27;11.50;63.60
56538;DHT22;42435;53.292;6.000;2024-03-23T10:18:47;11.40;64.10
56538;DHT22;42435;53.292;6.000;2024-03-23T10:22:06;11.20;63.60
56538;DHT22;42435;53.292;6.000;2024-03-23T10:28:55;10.40;63.80
56538;DHT22;42435;53.292;6.000;2024-03-23T10:32:11;10.00;64.50
56538;DHT22;42435;53.292;6.000;2024-03-23T10:34:44;9.80;65.30
56538;DHT22;42435;53.292;6.000;2024-03-23T10:37:31;9.80;66.30
56538;DHT22;42435;53.292;6.000;2024-03-23T10:40:02;9.90;67.10
56538;DHT22;42435;53.292;6.000;2024-03-23T10:42:40;10.00;67.40
56538;DHT22;42435;53.292;6.000;2024-03-23T10:45:10;10.30;67.40
56538;DHT22;42435;53.292;6.000;2024-03-23T10:47:55;10.40;66.80
56538;DHT22;42435;53.292;6.000;2024-03-23T10:50:26;10.50;66.30
56538;DHT22;42435;53.292;6.000;2024-03-23T10:52:58;10.50;66.00
56538;DHT22;42435;53.292;6.000;2024-03-23T10:55:26;10.50;66.20
56538;DHT22;42435;53.292;6.000;2024-03-23T10:58:01;10.40;66.50
56538;DHT22;42435;53.292;6.000;2024-03-23T11:00:30;10.40;66.80
56538;DHT22;42435;53.292;6.000;2024-03-23T11:03:44;10.50;66.80
56538;DHT22;42435;53.292;6.000;2024-03-23T11:06:35;10.70;66.30
56538;DHT22;42435;53.292;6.000;2024-03-23T11:09:04;10.80;65.00
56538;DHT22;42435;53.292;6.000;2024-03-23T11:11:52;10.70;65.40
56538;DHT22;42435;53.292;6.000;2024-03-23T11:14:26;10.90;65.60
56538;DHT22;42435;53.292;6.000;2024-03-23T11:20:04;11.30;64.00
56538;DHT22;42435;53.292;6.000;2024-03-23T11:22:45;11.50;64.10
56538;DHT22;42435;53.292;6.000;2024-03-23T11:25:49;11.60;63.10
56538;DHT22;42435;53.292;6.000;2024-03-23T11:28:34;11.50;61.90
56538;DHT22;42435;53.292;6.000;2024-03-23T11:31:11;11.40;62.10
56538;DHT22;42435;53.292;6.000;2024-03-23T11:33:40;11.50;62.50
56538;DHT22;42435;53.292;6.000;2024-03-23T11:36:09;11.50;62.30
56538;DHT22;42435;53.292;6.000;2024-03-23T11:38:45;11.40;61.60
56538;DHT22;42435;53.292;6.000;2024-03-23T11:41:12;11.20;61.10
56538;DHT22;42435;53.292;6.000;2024-03-23T11:43:47;11.00;61.20
56538;DHT22;42435;53.292;6.000;2024-03-23T11:46:25;10.80;61.90
56538;DHT22;42435;53.292;6.000;2024-03-23T11:49:31;10.60;62.80
56538;DHT22;42435;53.292;6.000;2024-03-23T11:52:28;10.30;62.70
56538;DHT22;42435;53.292;6.000;2024-03-23T11:55:08;10.10;63.20
56538;DHT22;42435;53.292;6.000;2024-03-23T11:58:08;10.10;63.80
56538;DHT22;42435;53.292;6.000;2024-03-23T12:01:12;10.20;64.30
56538;DHT22;42435;53.292;6.000;2024-03-23T12:04:24;10.40;64.80
56538;DHT22;42435;53.292;6.000;2024-03-23T12:07:19;10.70;65.00
56538;DHT22;42435;53.292;6.000;2024-03-23T12:10:08;11.10;64.30
56538;DHT22;42435;53.292;6.000;2024-03-23T12:12:44;11.20;63.10
56538;DHT22;42435;53.292;6.000;2024-03-23T12:15:24;11.20;62.30
56538;DHT22;42435;53.292;6.000;2024-03-23T12:18:16;11.10;61.80
56538;DHT22;42435;53.292;6.000;2024-03-23T12:21:22;11.00;61.20
56538;DHT22;42435;53.292;6.000;2024-03-23T12:24:52;10.90;61.70
56538;DHT22;42435;53.292;6.000;2024-03-23T12:27:37;10.90;61.60
56538;DHT22;42435;53.292;6.000;2024-03-23T12:30:16;11.00;61.30
56538;DHT22;42435;53.292;6.000;2024-03-23T12:33:42;11.10;61.10
56538;DHT22;42435;53.292;6.000;2024-03-23T12:40:15;11.10;60.60
56538;DHT22;42435;53.292;6.000;2024-03-23T12:44:00;10.90;61.10
56538;DHT22;42435;53.292;6.000;2024-03-23T12:47:07;11.10;62.50
56538;DHT22;42435;53.292;6.000;2024-03-23T12:50:54;11.40;62.60
56538;DHT22;42435;53.292;6.000;2024-03-23T12:53:59;11.70;61.40
56538;DHT22;42435;53.292;6.000;2024-03-23T12:56:27;11.90;60.60
56538;DHT22;42435;53.292;6.000;2024-03-23T12:59:05;11.80;60.30
56538;DHT22;42435;53.292;6.000;2024-03-23T13:01:42;11.80;60.50
56538;DHT22;42435;53.292;6.000;2024-03-23T13:04:11;11.70;60.30
56538;DHT22;42435;53.292;6.000;2024-03-23T13:06:40;11.40;59.60
56538;DHT22;42435;53.292;6.000;2024-03-23T13:09:08;11.20;60.30
56538;DHT22;42435;53.292;6.000;2024-03-23T13:11:51;10.90;61.60
56538;DHT22;42435;53.292;6.000;2024-03-23T13:14:27;10.60;62.80
56538;DHT22;42435;53.292;6.000;2024-03-23T13:17:01;10.20;63.50
56538;DHT22;42435;53.292;6.000;2024-03-23T13:19:40;10.00;64.40
56538;DHT22;42435;53.292;6.000;2024-03-23T13:22:15;9.90;65.30
56538;DHT22;42435;53.292;6.000;2024-03-23T13:24:47;9.80;66.10
56538;DHT22;42435;53.292;6.000;2024-03-23T13:27:16;9.70;66.90
56538;DHT22;42435;53.292;6.000;2024-03-23T13:30:07;9.80;67.40
56538;DHT22;42435;53.292;6.000;2024-03-23T13:32:37;9.80;68.10
56538;DHT22;42435;53.292;6.000;2024-03-23T13:35:09;9.90;68.10
56538;DHT22;42435;53.292;6.000;2024-03-23T13:37:39;9.90;68.20
56538;DHT22;42435;53.292;6.000;2024-03-23T13:40:09;9.90;68.20
56538;DHT22;42435;53.292;6.000;2024-03-23T13:42:39;9.80;68.20
56538;DHT22;42435;53.292;6.000;2024-03-23T13:45:17;9.70;68.20
56538;DHT22;42435;53.292;6.000;2024-03-23T13:47:46;9.60;68.30
56538;DHT22;42435;53.292;6.000;2024-03-23T13:50:16;9.50;68.60
56538;DHT22;42435;53.292;6.000;2024-03-23T13:52:47;9.50;68.70
56538;DHT22;42435;53.292;6.000;2024-03-23T13:55:22;9.50;69.00
56538;DHT22;42435;53.292;6.000;2024-03-23T13:57:54;9.50;69.40
56538;DHT22;42435;53.292;6.000;2024-03-23T14:00:20;9.70;69.00
56538;DHT22;42435;53.292;6.000;2024-03-23T14:02:46;9.70;68.40
56538;DHT22;42435;53.292;6.000;2024-03-23T14:05:11;9.70;68.10
56538;DHT22;42435;53.292;6.000;2024-03-23T14:07:37;9.70;68.10
56538;DHT22;42435;53.292;6.000;2024-03-23T14:10:03;9.70;68.90
56538;DHT22;42435;53.292;6.000;2024-03-23T14:12:32;9.80;69.60
56538;DHT22;42435;53.292;6.000;2024-03-23T14:14:57;9.90;69.50
56538;DHT22;42435;53.292;6.000;2024-03-23T14:17:24;9.90;69.10
56538;DHT22;42435;53.292;6.000;2024-03-23T14:19:51;9.90;68.70
56538;DHT22;42435;53.292;6.000;2024-03-23T14:22:17;10.00;67.90
56538;DHT22;42435;53.292;6.000;2024-03-23T14:24:45;10.00;67.60
56538;DHT22;42435;53.292;6.000;2024-03-23T14:27:10;10.20;67.40
56538;DHT22;42435;53.292;6.000;2024-03-23T14:29:36;10.20;66.80
56538;DHT22;42435;53.292;6.000;2024-03-23T14:32:02;10.20;66.40
56538;DHT22;42435;53.292;6.000;2024-03-23T14:34:28;10.20;66.10
56538;DHT22;42435;53.292;6.000;2024-03-23T14:36:54;10.20;65.80
56538;DHT22;42435;53.292;6.000;2024-03-23T14:39:23;10.40;65.60
56538;DHT22;42435;53.292;6.000;2024-03-23T14:41:52;10.50;64.10
56538;DHT22;42435;53.292;6.000;2024-03-23T14:44:18;10.50;63.00
56538;DHT22;42435;53.292;6.000;2024-03-23T14:46:44;10.40;62.70
56538;DHT22;42435;53.292;6.000;2024-03-23T14:49:14;10.40;62.50
56538;DHT22;42435;53.292;6.000;2024-03-23T14:51:43;10.40;62.10
56538;DHT22;42435;53.292;6.000;2024-03-23T14:54:09;10.40;62.10
56538;DHT22;42435;53.292;6.000;2024-03-23T14:56:35;10.30;61.90
56538;DHT22;42435;53.292;6.000;2024-03-23T14:59:01;10.30;61.90
56538;DHT22;42435;53.292;6.000;2024-03-23T15:01:28;10.20;61.90
56538;DHT22;42435;53.292;6.000;2024-03-23T15:03:54;10.00;61.90
56538;DHT22;42435;53.292;6.000;2024-03-23T15:06:19;10.00;62.10
56538;DHT22;42435;53.292;6.000;2024-03-23T15:08:45;10.00;62.30
56538;DHT22;42435;53.292;6.000;2024-03-23T15:11:11;10.00;62.40
56538;DHT22;42435;53.292;6.000;2024-03-23T15:13:38;10.10;62.30
56538;DHT22;42435;53.292;6.000;2024-03-23T15:16:04;10.00;62.30
56538;DHT22;42435;53.292;6.000;2024-03-23T15:18:32;10.00;62.40
56538;DHT22;42435;53.292;6.000;2024-03-23T15:20:59;10.00;62.60
56538;DHT22;42435;53.292;6.000;2024-03-23T15:23:29;10.00;62.60
56538;DHT22;42435;53.292;6.000;2024-03-23T15:25:59;10.00;62.50
56538;DHT22;42435;53.292;6.000;2024-03-23T15:28:26;9.90;62.10
56538;DHT22;42435;53.292;6.000;2024-03-23T15:31:20;9.80;62.10
56538;DHT22;42435;53.292;6.000;2024-03-23T15:33:45;9.80;62.30
56538;DHT22;42435;53.292;6.000;2024-03-23T15:36:11;9.80;62.50
56538;DHT22;42435;53.292;6.000;2024-03-23T15:38:37;9.90;62.30
56538;DHT22;42435;53.292;6.000;2024-03-23T15:41:04;9.90;62.20
56538;DHT22;42435;53.292;6.000;2024-03-23T15:43:30;9.90;62.10
56538;DHT22;42435;53.292;6.000;2024-03-23T15:46:00;9.90;62.00
56538;DHT22;42435;53.292;6.000;2024-03-23T15:48:28;9.80;62.10
56538;DHT22;42435;53.292;6.000;2024-03-23T15:50:55;9.90;62.30
56538;DHT22;42435;53.292;6.000;2024-03-23T15:53:22;9.90;62.30
56538;DHT22;42435;53.292;6.000;2024-03-23T15:58:25;9.90;62.10
56538;DHT22;42435;53.292;6.000;2024-03-23T16:01:00;9.90;62.00
56538;DHT22;42435;53.292;6.000;2024-03-23T16:03:27;9.90;61.60
56538;DHT22;42435;53.292;6.000;2024-03-23T16:05:53;9.90;61.70
56538;DHT22;42435;53.292;6.000;2024-03-23T16:08:19;9.90;61.80
56538;DHT22;42435;53.292;6.000;2024-03-23T16:10:45;9.80;61.80
56538;DHT22;42435;53.292;6.000;2024-03-23T16:13:11;9.90;62.00
56538;DHT22;42435;53.292;6.000;2024-03-23T16:15:37;9.80;62.10
56538;DHT22;42435;53.292;6.000;2024-03-23T16:18:05;9.80;62.30
56538;DHT22;42435;53.292;6.000;2024-03-23T16:20:31;9.80;62.30
56538;DHT22;42435;53.292;6.000;2024-03-23T16:23:05;9.70;62.00
56538;DHT22;42435;53.292;6.000;2024-03-23T16:25:32;9.60;61.80
56538;DHT22;42435;53.292;6.000;2024-03-23T16:27:57;9.60;61.80
56538;DHT22;42435;53.292;6.000;2024-03-23T16:30:23;9.50;61.90
56538;DHT22;42435;53.292;6.000;2024-03-23T16:32:50;9.40;62.10
56538;DHT22;42435;53.292;6.000;2024-03-23T16:35:15;9.40;62.20
56538;DHT22;42435;53.292;6.000;2024-03-23T16:37:41;9.30;62.40
56538;DHT22;42435;53.292;6.000;2024-03-23T16:40:07;9.20;62.60
56538;DHT22;42435;53.292;6.000;2024-03-23T16:42:35;9.20;62.90
56538;DHT22;42435;53.292;6.000;2024-03-23T16:45:01;9.20;63.20
56538;DHT22;42435;53.292;6.000;2024-03-23T16:47:27;9.20;63.40
56538;DHT22;42435;53.292;6.000;2024-03-23T16:49:54;9.10;63.50
56538;DHT22;42435;53.292;6.000;2024-03-23T16:52:22;9.10;63.80
56538;DHT22;42435;53.292;6.000;2024-03-23T16:54:50;9.10;63.90
56538;DHT22;42435;53.292;6.000;2024-03-23T16:57:17;9.10;64.20
56538;DHT22;42435;53.292;6.000;2024-03-23T16:59:43;9.10;64.20
56538;DHT22;42435;53.292;6.000;2024-03-23T17:02:09;9.00;64.40
56538;DHT22;42435;53.292;6.000;2024-03-23T17:04:35;9.00;64.50
56538;DHT22;42435;53.292;6.000;2024-03-23T17:07:03;9.00;64.70
56538;DHT22;42435;53.292;6.000;2024-03-23T17:09:29;8.90;65.00
56538;DHT22;42435;53.292;6.000;2024-03-23T17:11:56;9.00;65.20
56538;DHT22;42435;53.292;6.000;2024-03-23T17:14:22;9.00;65.40
56538;DHT22;42435;53.292;6.000;2024-03-23T17:16:54;8.90;65.60
56538;DHT22;42435;53.292;6.000;2024-03-23T17:19:20;8.90;65.80
56538;DHT22;42435;53.292;6.000;2024-03-23T17:21:46;8.90;65.90
56538;DHT22;42435;53.292;6.000;2024-03-23T17:24:12;8.80;66.00
56538;DHT22;42435;53.292;6.000;2024-03-23T17:26:38;8.80;66.10
56538;DHT22;42435;53.292;6.000;2024-03-23T17:29:03;8.70;66.20
56538;DHT22;42435;53.292;6.000;2024-03-23T17:31:30;8.70;66.20
56538;DHT22;42435;53.292;6.000;2024-03-23T17:33:56;8.60;66.30
56538;DHT22;42435;53.292;6.000;2024-03-23T17:36:27;8.60;66.50
56538;DHT22;42435;53.292;6.000;2024-03-23T17:38:54;8.50;66.70
56538;DHT22;42435;53.292;6.000;2024-03-23T17:41:21;8.50;66.90
56538;DHT22;42435;53.292;6.000;2024-03-23T17:43:47;8.40;67.10